Time;durP1;ratioP1;P1;durP2;ratioP2;P2;SDS_P1;SDS_P2;PMS_P1;PMS_P2;Temp;Humidity;BMP_temperature;BMP_pressure;BME280_temperature;BME280_humidity;BME280_pressure;Samples;Min_cycle;Max_cycle;Signal;HPM_P1;HPM_P2
2021/03/14 00:00:39;;;;;;;4.20;1.00;;;4.60;79.10;;;;;;5142458;27;20458;-82
2021/03/14 00:03:07;;;;;;;1.53;0.60;;;4.60;79.40;;;;;;5134994;27;20449;-80
2021/03/14 00:05:37;;;;;;;1.70;0.73;;;4.50;79.90;;;;;;5138345;27;20467;-82
2021/03/14 00:08:05;;;;;;;1.37;0.90;;;4.50;80.20;;;;;;5138935;27;20448;-81
2021/03/14 00:10:32;;;;;;;1.37;0.80;;;4.40;80.30;;;;;;5140895;27;20569;-82
2021/03/14 00:13:06;;;;;;;1.80;1.00;;;4.30;80.50;;;;;;5142554;27;20453;-82
2021/03/14 00:15:33;;;;;;;1.70;1.27;;;4.20;81.10;;;;;;5141758;27;20450;-82
2021/03/14 00:18:00;;;;;;;1.30;0.70;;;4.20;82.30;;;;;;5137976;27;20458;-82
2021/03/14 00:20:26;;;;;;;1.00;0.90;;;4.20;82.30;;;;;;5135121;28;20496;-83
2021/03/14 00:22:53;;;;;;;1.30;0.60;;;4.20;82.50;;;;;;5133498;28;20460;-82
2021/03/14 00:25:21;;;;;;;2.43;0.80;;;4.20;82.30;;;;;;5134431;28;20474;-82
2021/03/14 00:27:49;;;;;;;2.53;0.80;;;4.20;82.50;;;;;;5136017;27;20443;-82
2021/03/14 00:30:29;;;;;;;1.90;0.70;;;4.20;81.80;;;;;;5141027;28;20477;-83
2021/03/14 00:33:07;;;;;;;0.90;0.57;;;4.10;83.10;;;;;;5143311;28;20486;-84
2021/03/14 00:35:39;;;;;;;3.90;1.03;;;4.20;82.00;;;;;;5146076;28;20462;-84
2021/03/14 00:38:13;;;;;;;6.27;0.90;;;4.10;81.80;;;;;;5130005;28;20465;-82
2021/03/14 00:40:40;;;;;;;1.00;0.60;;;4.10;81.40;;;;;;5140469;27;20491;-82
2021/03/14 00:43:14;;;;;;;1.67;0.83;;;4.10;80.80;;;;;;5151658;27;20446;-82
2021/03/14 00:45:42;;;;;;;1.13;0.80;;;4.10;81.80;;;;;;5143291;27;20470;-82
2021/03/14 00:48:09;;;;;;;3.67;0.80;;;4.10;81.20;;;;;;5140013;27;20472;-81
2021/03/14 00:50:37;;;;;;;1.87;0.90;;;4.20;81.00;;;;;;5144358;27;20537;-82
2021/03/14 00:53:04;;;;;;;1.40;0.80;;;4.00;81.40;;;;;;5152543;27;20449;-81
2021/03/14 00:55:33;;;;;;;2.83;0.87;;;3.90;81.60;;;;;;5145583;27;20441;-81
2021/03/14 00:58:00;;;;;;;3.10;0.90;;;3.90;82.00;;;;;;5147035;27;20460;-82
2021/03/14 01:00:27;;;;;;;1.53;0.70;;;3.90;82.10;;;;;;5149108;27;20447;-82
2021/03/14 01:02:55;;;;;;;2.10;0.70;;;3.80;82.10;;;;;;5145809;27;20455;-80
2021/03/14 01:05:21;;;;;;;3.13;1.33;;;3.80;82.70;;;;;;5132597;28;20456;-81
2021/03/14 01:07:52;;;;;;;1.90;0.77;;;3.80;82.20;;;;;;5134698;27;20443;-81
2021/03/14 01:10:27;;;;;;;1.77;0.80;;;3.80;82.80;;;;;;5142615;27;20453;-82
2021/03/14 01:12:55;;;;;;;2.80;0.90;;;3.80;82.90;;;;;;5151465;27;20442;-83
2021/03/14 01:15:34;;;;;;;3.47;0.70;;;3.90;82.10;;;;;;5133014;27;20470;-82
2021/03/14 01:18:04;;;;;;;1.83;1.10;;;3.90;82.10;;;;;;5144230;27;20450;-82
2021/03/14 01:20:32;;;;;;;1.00;0.70;;;4.00;82.60;;;;;;5138875;27;20494;-81
2021/03/14 01:22:59;;;;;;;0.70;0.60;;;4.00;82.10;;;;;;5145255;27;20860;-81
2021/03/14 01:25:28;;;;;;;1.60;0.70;;;4.20;82.00;;;;;;5154933;27;20435;-82
2021/03/14 01:27:59;;;;;;;4.87;0.80;;;4.10;81.60;;;;;;5158009;27;20470;-82
2021/03/14 01:30:27;;;;;;;2.70;0.90;;;4.10;81.60;;;;;;5140419;27;20462;-82
2021/03/14 01:32:54;;;;;;;2.03;1.10;;;4.10;81.70;;;;;;5135553;27;20466;-80
2021/03/14 01:35:23;;;;;;;2.20;0.87;;;4.10;81.80;;;;;;5134710;27;20448;-80
2021/03/14 01:37:50;;;;;;;3.37;1.10;;;4.20;81.50;;;;;;5131474;27;20455;-81
2021/03/14 01:40:19;;;;;;;1.63;0.97;;;4.20;81.80;;;;;;5137109;27;20461;-81
2021/03/14 01:42:46;;;;;;;1.10;0.80;;;4.20;81.40;;;;;;5129843;27;20458;-80
2021/03/14 01:45:14;;;;;;;0.90;0.80;;;4.20;81.30;;;;;;5142159;27;20442;-83
2021/03/14 01:47:43;;;;;;;1.30;0.80;;;4.20;81.30;;;;;;5134562;27;20442;-83
2021/03/14 01:50:13;;;;;;;2.50;1.20;;;4.10;81.80;;;;;;5135450;27;20462;-83
2021/03/14 01:52:47;;;;;;;1.37;0.80;;;4.10;81.50;;;;;;5142195;27;20460;-83
2021/03/14 01:55:20;;;;;;;2.70;1.03;;;3.90;82.30;;;;;;5135627;27;20474;-82
2021/03/14 01:57:50;;;;;;;3.90;0.90;;;3.60;85.90;;;;;;5134206;27;20446;-83
2021/03/14 02:00:25;;;;;;;2.07;0.90;;;3.30;88.90;;;;;;5147727;27;20446;-82
2021/03/14 02:02:53;;;;;;;0.70;0.60;;;3.20;91.50;;;;;;5135144;27;20458;-82
2021/03/14 02:05:22;;;;;;;1.23;0.77;;;3.10;92.80;;;;;;5148478;27;20481;-82
2021/03/14 02:07:53;;;;;;;2.20;0.93;;;3.00;94.20;;;;;;5142893;27;20430;-82
2021/03/14 02:10:25;;;;;;;1.13;0.70;;;3.10;95.30;;;;;;5148450;27;20480;-82
2021/03/14 02:12:54;;;;;;;5.33;0.83;;;3.10;96.20;;;;;;5125157;27;21147;-82
2021/03/14 02:15:24;;;;;;;6.63;0.80;;;3.10;97.00;;;;;;5132256;27;20448;-82
2021/03/14 02:17:57;;;;;;;5.37;0.93;;;3.00;95.70;;;;;;5134100;27;20463;-82
2021/03/14 02:20:27;;;;;;;2.03;0.87;;;3.10;96.80;;;;;;5132415;27;20439;-81
2021/03/14 02:23:05;;;;;;;5.40;0.93;;;3.00;95.90;;;;;;5147813;27;20453;-82
2021/03/14 02:25:44;;;;;;;3.70;0.60;;;3.00;98.00;;;;;;5135550;27;20462;-82
2021/03/14 02:28:16;;;;;;;1.50;0.70;;;3.10;99.90;;;;;;5137069;27;20451;-82
2021/03/14 02:30:46;;;;;;;1.93;1.07;;;3.30;98.90;;;;;;5128484;27;20484;-82
2021/03/14 02:33:30;;;;;;;1.80;1.20;;;3.30;98.60;;;;;;5124370;27;20450;-82
2021/03/14 02:35:58;;;;;;;2.60;1.27;;;3.30;97.50;;;;;;5132985;27;20450;-82
2021/03/14 02:38:26;;;;;;;1.90;1.20;;;3.50;98.60;;;;;;5142355;27;20545;-82
2021/03/14 02:41:02;;;;;;;3.10;1.30;;;3.60;97.10;;;;;;5145404;27;20461;-82
2021/03/14 02:43:33;;;;;;;1.30;1.20;;;3.70;97.20;;;;;;5137129;27;20605;-82
2021/03/14 02:46:01;;;;;;;3.63;2.00;;;3.70;95.80;;;;;;5133810;27;20462;-81
2021/03/14 02:48:32;;;;;;;2.30;1.50;;;3.70;95.80;;;;;;5137048;27;20474;-82
2021/03/14 02:51:04;;;;;;;1.67;1.10;;;3.70;95.60;;;;;;5129599;27;20454;-82
2021/03/14 02:53:32;;;;;;;3.93;1.13;;;3.50;95.80;;;;;;5132134;27;20452;-82
2021/03/14 02:56:01;;;;;;;2.00;1.20;;;3.60;97.10;;;;;;5130823;27;20475;-82
2021/03/14 02:58:33;;;;;;;3.53;1.30;;;3.50;94.90;;;;;;5142620;27;20519;-82
2021/03/14 03:01:23;;;;;;;2.60;0.93;;;3.30;95.60;;;;;;5138270;27;20467;-81
2021/03/14 03:03:53;;;;;;;1.40;0.80;;;3.20;97.30;;;;;;5134853;27;20446;-82
2021/03/14 03:06:49;;;;;;;1.50;0.90;;;3.10;96.90;;;;;;5133955;27;20470;-84
2021/03/14 03:12:33;;;;;;;1.43;1.03;;;3.20;97.70;;;;;;5134163;27;20462;-83
2021/03/14 03:15:09;;;;;;;3.17;1.10;;;3.20;97.60;;;;;;5132679;27;20443;-83
2021/03/14 03:17:51;;;;;;;2.00;1.20;;;3.10;98.70;;;;;;5137450;27;20506;-84
2021/03/14 03:26:41;;;;;;;3.67;1.50;;;2.30;99.90;;;;;;5139933;27;20449;-83
2021/03/14 03:36:17;;;;;;;6.07;1.60;;;2.30;99.90;;;;;;5131998;27;20511;-83
2021/03/14 04:03:04;;;;;;;5.60;1.40;;;3.00;99.90;;;;;;5120123;27;20453;-83
2021/03/14 04:24:00;;;;;;;4.97;2.20;;;3.20;99.90;;;;;;5069549;28;20478;-82
2021/03/14 05:20:23;;;;;;;3.97;3.60;;;3.50;99.90;;;;;;5131712;28;20454;-82
2021/03/14 05:36:37;;;;;;;2.23;2.03;;;3.60;98.80;;;;;;5129178;27;20490;-82
2021/03/14 05:42:42;;;;;;;2.80;1.40;;;3.50;98.40;;;;;;5132772;28;21220;-82
2021/03/14 05:45:10;;;;;;;4.10;1.83;;;3.50;97.00;;;;;;5133943;28;20499;-77
2021/03/14 05:47:37;;;;;;;2.63;1.37;;;3.40;96.10;;;;;;5117350;28;20440;-78
2021/03/14 05:50:04;;;;;;;1.87;1.77;;;3.40;95.70;;;;;;5111109;28;20446;-80
2021/03/14 05:52:32;;;;;;;1.33;1.20;;;3.40;96.40;;;;;;5104740;28;20484;-79
2021/03/14 05:55:00;;;;;;;1.70;1.10;;;3.40;94.50;;;;;;5105372;28;20451;-79
2021/03/14 05:57:27;;;;;;;1.20;1.10;;;3.40;94.20;;;;;;5106563;28;20458;-78
2021/03/14 05:59:54;;;;;;;1.57;1.47;;;3.40;93.80;;;;;;5102036;28;20453;-78
2021/03/14 06:02:21;;;;;;;1.67;1.00;;;3.50;95.40;;;;;;5118887;28;20444;-79
2021/03/14 06:04:52;;;;;;;1.80;1.40;;;3.50;94.30;;;;;;5119435;28;20550;-77
2021/03/14 06:07:19;;;;;;;1.43;1.27;;;3.50;93.60;;;;;;5103481;28;20554;-77
2021/03/14 06:09:45;;;;;;;2.60;1.33;;;3.50;93.60;;;;;;5103098;28;21302;-77
2021/03/14 06:12:14;;;;;;;2.13;1.40;;;3.50;91.80;;;;;;5101530;28;20470;-78
2021/03/14 06:14:40;;;;;;;1.67;1.50;;;3.40;90.90;;;;;;5107300;28;20555;-79
2021/03/14 06:17:07;;;;;;;1.60;1.50;;;3.50;91.80;;;;;;5111238;27;20578;-78
2021/03/14 06:19:34;;;;;;;2.67;1.73;;;3.50;91.90;;;;;;5103397;28;20546;-79
2021/03/14 06:22:20;;;;;;;4.97;2.20;;;3.60;91.40;;;;;;5109762;28;20447;-77
2021/03/14 06:24:47;;;;;;;2.77;1.83;;;3.50;91.30;;;;;;5106122;28;20473;-78
2021/03/14 06:27:29;;;;;;;2.30;2.07;;;3.60;91.40;;;;;;5097979;28;20463;-79
2021/03/14 06:29:55;;;;;;;2.57;2.00;;;3.50;91.00;;;;;;5100321;28;20482;-78
2021/03/14 06:32:22;;;;;;;2.30;2.10;;;3.50;90.90;;;;;;5094534;28;20479;-80
2021/03/14 06:34:48;;;;;;;3.93;2.10;;;3.50;91.00;;;;;;5092694;28;20847;-80
2021/03/14 06:37:16;;;;;;;2.80;2.50;;;3.50;91.10;;;;;;5105404;28;20973;-79
2021/03/14 06:39:45;;;;;;;3.30;2.80;;;3.50;90.30;;;;;;5101368;28;20534;-78
2021/03/14 06:42:28;;;;;;;4.70;2.30;;;3.50;90.10;;;;;;5106600;28;20480;-78
2021/03/14 06:45:01;;;;;;;2.33;1.93;;;3.60;90.50;;;;;;5103649;28;20495;-82
2021/03/14 06:47:41;;;;;;;3.83;2.67;;;3.70;89.10;;;;;;5099744;28;20451;-78
2021/03/14 06:50:10;;;;;;;3.13;2.53;;;3.70;88.70;;;;;;5109655;28;21041;-77
2021/03/14 06:52:37;;;;;;;3.57;3.00;;;3.80;87.90;;;;;;5110771;28;20579;-78
2021/03/14 06:55:04;;;;;;;3.03;2.73;;;3.90;87.80;;;;;;5114015;28;20558;-78
2021/03/14 06:57:31;;;;;;;3.23;2.33;;;4.00;85.60;;;;;;5106617;28;20470;-80
2021/03/14 07:00:00;;;;;;;2.83;2.57;;;4.00;84.50;;;;;;5114330;28;20527;-81
2021/03/14 07:02:27;;;;;;;4.40;2.90;;;4.20;85.20;;;;;;5107960;28;20450;-79
2021/03/14 07:04:55;;;;;;;2.53;2.33;;;4.30;84.90;;;;;;5100018;28;20444;-78
2021/03/14 07:07:25;;;;;;;7.50;3.03;;;4.30;82.70;;;;;;5104557;28;20498;-78
2021/03/14 07:09:57;;;;;;;3.40;3.10;;;4.50;85.30;;;;;;5111814;28;20476;-78
2021/03/14 07:12:26;;;;;;;4.93;3.30;;;4.30;83.10;;;;;;5105603;28;20459;-79
2021/03/14 07:14:53;;;;;;;4.47;3.20;;;4.40;81.80;;;;;;5114684;28;20446;-78
2021/03/14 07:17:31;;;;;;;3.23;2.93;;;4.70;81.10;;;;;;5112047;28;20451;-78
2021/03/14 07:20:00;;;;;;;6.00;3.30;;;5.00;80.60;;;;;;5111369;28;20438;-77
2021/03/14 07:22:27;;;;;;;5.53;3.43;;;5.50;79.00;;;;;;5113415;28;20511;-77
2021/03/14 07:25:21;;;;;;;3.13;2.83;;;5.40;77.60;;;;;;5112792;28;20459;-78
2021/03/14 07:27:48;;;;;;;6.37;3.13;;;5.40;78.30;;;;;;5099211;28;20882;-78
2021/03/14 07:30:15;;;;;;;5.53;3.27;;;5.10;77.50;;;;;;5096699;28;20458;-78
2021/03/14 07:32:43;;;;;;;3.80;3.37;;;5.00;78.20;;;;;;5096553;28;20458;-78
2021/03/14 07:35:10;;;;;;;3.83;3.40;;;5.00;78.10;;;;;;5097645;28;21097;-80
2021/03/14 07:37:41;;;;;;;3.90;3.43;;;5.00;78.30;;;;;;5096285;28;20450;-79
2021/03/14 07:40:09;;;;;;;7.10;3.77;;;5.20;78.10;;;;;;5094834;28;21022;-83
2021/03/14 07:42:35;;;;;;;5.60;3.70;;;5.20;77.60;;;;;;5103802;28;20452;-77
2021/03/14 07:45:07;;;;;;;4.20;3.67;;;5.10;77.80;;;;;;5107645;28;20463;-85
2021/03/14 07:47:45;;;;;;;4.10;3.67;;;5.00;77.90;;;;;;5119229;28;20528;-84
2021/03/14 07:50:18;;;;;;;5.87;3.30;;;4.80;78.30;;;;;;5122434;28;20462;-84
2021/03/14 07:55:40;;;;;;;4.80;3.43;;;4.40;80.50;;;;;;5124147;28;20437;-86
2021/03/14 07:58:14;;;;;;;8.10;3.67;;;4.20;82.20;;;;;;5134585;28;20454;-86
2021/03/14 08:00:42;;;;;;;3.83;3.20;;;4.30;82.80;;;;;;5124424;28;20451;-84
2021/03/14 08:03:16;;;;;;;5.70;3.40;;;4.40;82.60;;;;;;5121693;28;20441;-86
2021/03/14 08:05:52;;;;;;;6.60;3.60;;;4.50;82.70;;;;;;5120369;28;20455;-85
2021/03/14 08:08:49;;;;;;;5.17;3.20;;;4.80;82.60;;;;;;5123207;28;20827;-86
2021/03/14 08:11:47;;;;;;;4.73;3.50;;;5.00;81.50;;;;;;5127662;28;20516;-86
2021/03/14 08:14:41;;;;;;;2.90;2.60;;;4.90;79.60;;;;;;5123529;28;20454;-85
2021/03/14 08:17:15;;;;;;;3.70;3.10;;;4.90;78.90;;;;;;5119602;28;20477;-86
2021/03/14 08:19:50;;;;;;;2.87;2.63;;;5.00;79.50;;;;;;5130344;28;20678;-86
2021/03/14 08:22:47;;;;;;;3.27;2.70;;;5.10;78.00;;;;;;5124102;28;20446;-86
2021/03/14 08:28:33;;;;;;;2.53;2.33;;;5.30;76.40;;;;;;5136227;28;20450;-86
2021/03/14 08:33:46;;;;;;;2.17;1.93;;;5.70;74.30;;;;;;5134285;28;20473;-86
2021/03/14 08:36:44;;;;;;;3.73;2.50;;;5.70;75.20;;;;;;5118115;28;20548;-86
2021/03/14 08:39:46;;;;;;;3.43;2.60;;;5.60;75.20;;;;;;5120109;28;20448;-87
2021/03/14 08:42:21;;;;;;;4.90;3.57;;;5.70;75.30;;;;;;5132767;28;20443;-86
2021/03/14 08:45:47;;;;;;;2.37;2.17;;;5.70;74.70;;;;;;5131903;28;20969;-86
2021/03/14 08:48:21;;;;;;;6.43;2.63;;;5.60;73.10;;;;;;5112996;28;20475;-82
2021/03/14 08:50:57;;;;;;;3.07;2.70;;;5.40;72.80;;;;;;5108074;28;20449;-82
2021/03/14 08:53:37;;;;;;;2.53;2.23;;;5.70;74.10;;;;;;5129754;28;20464;-83
2021/03/14 09:06:35;;;;;;;4.37;2.90;;;5.50;72.50;;;;;;5124123;28;20438;-84
2021/03/14 09:12:43;;;;;;;2.83;2.50;;;5.20;72.40;;;;;;5119549;28;20444;-85
2021/03/14 09:21:16;;;;;;;3.37;2.60;;;5.60;72.40;;;;;;5120675;28;20443;-84
2021/03/14 09:23:46;;;;;;;2.93;2.57;;;5.50;71.60;;;;;;5125323;28;20682;-84
2021/03/14 09:26:29;;;;;;;3.23;2.80;;;5.70;72.00;;;;;;5121640;28;20425;-84
2021/03/14 09:29:03;;;;;;;4.83;2.60;;;5.70;71.80;;;;;;5129323;28;20515;-83
2021/03/14 09:31:42;;;;;;;2.67;2.47;;;5.60;70.70;;;;;;5129762;28;20456;-84
2021/03/14 09:34:23;;;;;;;3.40;2.87;;;5.50;71.00;;;;;;5134889;28;20455;-84
2021/03/14 09:39:50;;;;;;;4.83;2.50;;;5.50;70.50;;;;;;5124166;27;20456;-85
2021/03/14 09:42:31;;;;;;;7.27;2.60;;;5.90;71.00;;;;;;5119284;28;20459;-82
2021/03/14 09:45:11;;;;;;;4.57;2.97;;;6.00;70.10;;;;;;5123852;28;20496;-82
2021/03/14 09:48:05;;;;;;;3.83;2.67;;;6.10;70.00;;;;;;5117271;28;20450;-84
2021/03/14 09:50:42;;;;;;;4.03;2.90;;;5.90;69.60;;;;;;5108384;28;20455;-83
2021/03/14 09:56:13;;;;;;;3.90;2.47;;;5.90;69.50;;;;;;5126709;28;20532;-83
2021/03/14 09:58:44;;;;;;;7.10;2.50;;;6.10;68.50;;;;;;5121474;28;20419;-84
2021/03/14 10:01:18;;;;;;;4.73;3.17;;;6.00;68.80;;;;;;5132562;28;20440;-83
2021/03/14 10:03:45;;;;;;;2.77;2.47;;;5.90;68.70;;;;;;5124535;28;20446;-83
2021/03/14 10:06:12;;;;;;;4.37;2.90;;;5.90;68.10;;;;;;5124496;28;20440;-84
2021/03/14 10:11:41;;;;;;;4.83;2.83;;;6.00;68.30;;;;;;5128651;28;20439;-83
2021/03/14 10:14:20;;;;;;;4.30;2.73;;;6.00;68.40;;;;;;5129858;28;20456;-85
2021/03/14 10:16:54;;;;;;;5.43;2.90;;;6.20;67.70;;;;;;5128083;28;20532;-83
2021/03/14 10:20:05;;;;;;;3.40;2.57;;;6.30;66.80;;;;;;5123281;28;20812;-84
2021/03/14 10:22:36;;;;;;;3.60;3.30;;;6.40;67.40;;;;;;5122383;28;20478;-83
2021/03/14 10:25:05;;;;;;;6.00;3.20;;;6.30;66.20;;;;;;5123366;28;20462;-84
2021/03/14 10:27:33;;;;;;;3.83;3.00;;;6.10;66.80;;;;;;5130381;27;20468;-84
2021/03/14 10:30:13;;;;;;;4.60;2.90;;;6.10;67.40;;;;;;5110598;28;20535;-83
2021/03/14 10:32:46;;;;;;;5.30;3.13;;;6.10;67.00;;;;;;5126602;28;20453;-83
2021/03/14 10:35:15;;;;;;;3.33;2.40;;;6.10;65.60;;;;;;5120926;28;20441;-82
2021/03/14 10:37:43;;;;;;;3.30;2.40;;;6.00;65.10;;;;;;5109926;28;20444;-83
2021/03/14 10:40:15;;;;;;;3.00;2.53;;;6.30;64.10;;;;;;5124687;28;20799;-82
2021/03/14 10:42:48;;;;;;;6.53;2.40;;;6.70;63.90;;;;;;5124651;28;20467;-81
2021/03/14 10:45:22;;;;;;;3.60;2.00;;;7.00;63.80;;;;;;5128183;28;20468;-83
2021/03/14 10:48:00;;;;;;;6.20;2.67;;;7.20;63.20;;;;;;5125940;28;20456;-82
2021/03/14 10:50:30;;;;;;;3.30;2.50;;;7.20;61.90;;;;;;5108576;28;20455;-83
2021/03/14 10:53:07;;;;;;;7.73;2.33;;;7.30;61.70;;;;;;5125436;28;20522;-83
2021/03/14 10:55:37;;;;;;;3.17;2.10;;;7.60;61.30;;;;;;5111376;28;20468;-83
2021/03/14 10:58:08;;;;;;;4.10;2.33;;;7.70;61.10;;;;;;5118122;28;20761;-82
2021/03/14 11:00:37;;;;;;;4.20;1.90;;;7.70;60.30;;;;;;5114155;28;20493;-81
2021/03/14 11:03:13;;;;;;;3.20;2.30;;;7.30;58.90;;;;;;5125079;28;20457;-82
2021/03/14 11:05:43;;;;;;;4.97;2.67;;;7.10;59.40;;;;;;5121947;28;20437;-82
2021/03/14 11:08:09;;;;;;;4.83;2.27;;;7.30;59.40;;;;;;5130445;28;20559;-85
2021/03/14 11:10:37;;;;;;;4.20;1.93;;;7.50;60.00;;;;;;5122093;28;20477;-85
2021/03/14 11:13:15;;;;;;;4.10;1.90;;;7.30;60.20;;;;;;5118923;28;20464;-80
2021/03/14 11:15:45;;;;;;;3.27;1.60;;;7.90;60.50;;;;;;5111407;28;20914;-85
2021/03/14 11:18:20;;;;;;;3.90;1.93;;;7.60;58.90;;;;;;5131330;28;20437;-83
2021/03/14 11:20:47;;;;;;;3.83;2.00;;;7.70;57.50;;;;;;5109764;28;20445;-79
2021/03/14 11:23:13;;;;;;;3.57;2.00;;;7.50;57.80;;;;;;5107253;28;20470;-80
2021/03/14 11:25:40;;;;;;;4.40;1.77;;;7.70;58.20;;;;;;5122976;28;20445;-78
2021/03/14 11:28:09;;;;;;;2.93;1.47;;;8.00;58.00;;;;;;5121459;28;20469;-81
2021/03/14 11:30:36;;;;;;;2.93;1.80;;;8.30;57.60;;;;;;5126661;28;20435;-79
2021/03/14 11:33:05;;;;;;;3.23;1.70;;;8.70;55.90;;;;;;5108515;28;20968;-79
2021/03/14 11:35:32;;;;;;;2.30;1.63;;;8.60;55.20;;;;;;5116194;28;20481;-80
2021/03/14 11:37:59;;;;;;;3.03;1.97;;;8.70;55.80;;;;;;5109999;28;20455;-79
2021/03/14 11:40:25;;;;;;;3.60;1.87;;;8.50;55.00;;;;;;5108084;28;20442;-78
2021/03/14 11:42:52;;;;;;;2.60;1.70;;;8.40;55.30;;;;;;5104585;28;20545;-79
2021/03/14 11:45:18;;;;;;;3.17;2.23;;;8.30;56.70;;;;;;5112370;28;20457;-82
2021/03/14 11:47:45;;;;;;;3.43;1.97;;;8.50;55.20;;;;;;5126080;28;20462;-80
2021/03/14 11:50:13;;;;;;;4.53;2.00;;;8.70;54.60;;;;;;5114042;28;20478;-83
2021/03/14 11:52:42;;;;;;;3.90;2.30;;;9.20;56.40;;;;;;5114840;28;20474;-86
2021/03/14 11:55:11;;;;;;;3.67;2.27;;;9.10;53.20;;;;;;5104779;28;20447;-83
2021/03/14 11:57:37;;;;;;;3.53;1.90;;;8.70;52.80;;;;;;5119881;28;20478;-87
2021/03/14 12:00:05;;;;;;;3.10;1.80;;;8.50;52.60;;;;;;5121949;28;20521;-82
2021/03/14 12:02:32;;;;;;;2.27;1.90;;;7.80;52.10;;;;;;5120508;28;20496;-84
2021/03/14 12:04:58;;;;;;;2.83;1.80;;;7.70;52.00;;;;;;5123964;28;20437;-81
2021/03/14 12:07:26;;;;;;;3.50;1.90;;;7.60;52.80;;;;;;5116991;28;20987;-79
2021/03/14 12:09:55;;;;;;;2.17;1.23;;;7.30;52.20;;;;;;5120928;28;20455;-85
2021/03/14 12:12:22;;;;;;;2.40;1.77;;;7.30;51.10;;;;;;5108077;28;20467;-82
2021/03/14 12:14:48;;;;;;;2.50;1.30;;;7.50;50.70;;;;;;5115039;28;20232;-83
2021/03/14 12:17:15;;;;;;;2.20;1.50;;;7.20;50.40;;;;;;5110304;28;20541;-82
2021/03/14 12:19:42;;;;;;;3.70;1.63;;;7.30;51.20;;;;;;5124402;28;20447;-83
2021/03/14 12:22:09;;;;;;;3.80;1.80;;;6.80;51.50;;;;;;5117600;28;20454;-80
2021/03/14 12:24:36;;;;;;;5.63;2.00;;;6.60;52.00;;;;;;5110186;28;20764;-80
2021/03/14 12:27:03;;;;;;;2.90;1.60;;;6.40;52.00;;;;;;5116379;28;20453;-84
2021/03/14 12:29:30;;;;;;;2.80;1.80;;;6.30;51.70;;;;;;5120310;28;20444;-84
2021/03/14 12:31:57;;;;;;;3.93;1.73;;;6.50;52.00;;;;;;5120063;28;20452;-82
2021/03/14 12:34:23;;;;;;;3.10;2.07;;;6.90;52.60;;;;;;5118151;28;20503;-84
2021/03/14 12:36:50;;;;;;;1.90;1.60;;;7.40;52.70;;;;;;5113364;28;20506;-83
2021/03/14 12:39:19;;;;;;;5.90;2.00;;;7.50;52.70;;;;;;5114284;28;20445;-82
2021/03/14 12:41:47;;;;;;;3.87;2.33;;;7.70;52.30;;;;;;5116722;28;20461;-85
2021/03/14 12:44:13;;;;;;;3.00;1.80;;;8.10;52.10;;;;;;5116057;28;20488;-83
2021/03/14 12:46:40;;;;;;;2.60;1.47;;;8.40;52.10;;;;;;5115435;28;20474;-82
2021/03/14 12:49:07;;;;;;;2.77;2.17;;;7.90;52.00;;;;;;5119165;28;20460;-83
2021/03/14 12:51:35;;;;;;;2.60;2.20;;;7.50;52.50;;;;;;5106983;28;20515;-80
2021/03/14 12:54:02;;;;;;;2.80;2.07;;;7.70;53.70;;;;;;5111930;28;20453;-80
2021/03/14 12:56:29;;;;;;;4.53;2.80;;;7.80;54.30;;;;;;5101342;28;20469;-82
2021/03/14 12:59:00;;;;;;;3.33;2.13;;;7.90;54.10;;;;;;5110608;28;20445;-82
2021/03/14 13:01:27;;;;;;;3.93;1.77;;;7.40;54.10;;;;;;5120212;28;20450;-81
2021/03/14 13:03:55;;;;;;;4.03;1.70;;;6.60;56.00;;;;;;5116586;28;20464;-83
2021/03/14 13:06:22;;;;;;;3.50;2.10;;;6.00;57.00;;;;;;5113121;28;20505;-82
2021/03/14 13:08:49;;;;;;;1.70;1.27;;;5.80;58.90;;;;;;5115911;28;20446;-81
2021/03/14 13:11:15;;;;;;;2.60;1.70;;;5.80;58.60;;;;;;5123545;28;20469;-84
2021/03/14 13:13:44;;;;;;;1.43;1.10;;;5.80;58.00;;;;;;5126185;28;20463;-87
2021/03/14 13:16:11;;;;;;;3.53;1.70;;;5.90;56.90;;;;;;5129924;28;20465;-81
2021/03/14 13:18:38;;;;;;;4.60;1.70;;;6.10;56.90;;;;;;5124767;28;20562;-82
2021/03/14 13:21:05;;;;;;;3.23;1.93;;;6.90;58.00;;;;;;5125545;28;20446;-81
2021/03/14 13:23:34;;;;;;;3.40;2.10;;;7.20;58.10;;;;;;5128614;27;20475;-84
2021/03/14 13:26:01;;;;;;;2.63;1.53;;;;;;;;;;5108930;28;20450;-82
2021/03/14 13:28:28;;;;;;;4.63;1.50;;;6.90;56.70;;;;;;5112429;28;20504;-81
2021/03/14 13:30:55;;;;;;;4.70;1.70;;;6.70;57.40;;;;;;5125911;28;20461;-82
2021/03/14 13:33:24;;;;;;;3.10;2.10;;;6.90;57.00;;;;;;5116074;28;20451;-80
2021/03/14 13:35:51;;;;;;;3.57;1.87;;;7.30;57.20;;;;;;5116440;28;20507;-80
2021/03/14 13:38:18;;;;;;;5.70;1.73;;;7.50;57.20;;;;;;5117224;28;20946;-79
2021/03/14 13:40:44;;;;;;;2.03;1.80;;;7.80;57.50;;;;;;5119439;28;20472;-78
2021/03/14 13:43:11;;;;;;;1.80;1.60;;;7.70;56.70;;;;;;5121061;28;20832;-80
2021/03/14 13:45:38;;;;;;;2.33;1.70;;;7.90;56.70;;;;;;5127469;28;20464;-82
2021/03/14 13:48:05;;;;;;;4.13;1.90;;;7.90;56.30;;;;;;5120776;28;20460;-80
2021/03/14 13:50:33;;;;;;;1.97;1.70;;;8.20;55.50;;;;;;5117596;28;20448;-80
2021/03/14 13:52:59;;;;;;;3.77;2.10;;;8.20;55.70;;;;;;5108684;28;20454;-80
2021/03/14 13:55:26;;;;;;;1.87;1.50;;;8.30;55.30;;;;;;5120392;28;20510;-81
2021/03/14 13:57:52;;;;;;;3.40;1.60;;;7.90;54.40;;;;;;5130335;28;20480;-84
2021/03/14 14:00:22;;;;;;;2.97;2.20;;;7.90;55.10;;;;;;5123820;28;20503;-83
2021/03/14 14:02:48;;;;;;;4.37;2.60;;;7.70;54.20;;;;;;5116404;28;20500;-79
2021/03/14 14:05:15;;;;;;;3.60;2.20;;;7.60;53.70;;;;;;5120675;28;20494;-79
2021/03/14 14:07:42;;;;;;;3.50;2.10;;;7.60;53.90;;;;;;5107424;28;20458;-78
2021/03/14 14:10:11;;;;;;;1.93;1.70;;;7.50;53.40;;;;;;5105360;28;20454;-80
2021/03/14 14:12:38;;;;;;;4.10;2.20;;;7.70;53.20;;;;;;5120146;28;20465;-79
2021/03/14 14:15:06;;;;;;;4.63;1.97;;;7.90;52.80;;;;;;5124757;28;20446;-84
2021/03/14 14:17:32;;;;;;;3.60;1.70;;;7.80;52.60;;;;;;5114164;28;20462;-79
2021/03/14 14:19:59;;;;;;;6.60;2.37;;;7.50;52.00;;;;;;5110769;28;20469;-81
2021/03/14 14:22:25;;;;;;;2.90;1.43;;;7.40;52.30;;;;;;5103764;28;20474;-83
2021/03/14 14:24:53;;;;;;;2.50;1.27;;;7.30;52.20;;;;;;5122010;28;20476;-82
2021/03/14 14:27:21;;;;;;;1.63;1.40;;;7.40;52.70;;;;;;5122754;28;20436;-81
2021/03/14 14:29:48;;;;;;;1.43;1.27;;;7.30;52.90;;;;;;5110266;28;20548;-81
2021/03/14 14:32:15;;;;;;;3.37;1.70;;;7.30;53.50;;;;;;5117524;28;20459;-83
2021/03/14 14:34:41;;;;;;;3.03;1.50;;;7.10;53.60;;;;;;5106298;28;20445;-82
2021/03/14 14:37:08;;;;;;;2.17;1.50;;;7.10;53.30;;;;;;5113421;28;20473;-81
2021/03/14 14:39:35;;;;;;;1.30;1.20;;;6.80;52.70;;;;;;5105508;28;20445;-84
2021/03/14 14:42:02;;;;;;;4.63;1.80;;;6.60;52.70;;;;;;5108491;28;20449;-86
2021/03/14 14:44:28;;;;;;;3.70;1.80;;;6.60;52.70;;;;;;5107641;28;20436;-80
2021/03/14 14:46:55;;;;;;;2.40;1.87;;;6.70;52.90;;;;;;5110673;28;20457;-83
2021/03/14 14:49:21;;;;;;;2.93;1.63;;;6.60;53.00;;;;;;5120862;28;20460;-79
2021/03/14 14:51:48;;;;;;;2.87;1.60;;;6.60;53.20;;;;;;5121441;28;20464;-79
2021/03/14 14:54:15;;;;;;;2.60;1.73;;;6.50;53.30;;;;;;5121803;28;20464;-81
2021/03/14 14:56:42;;;;;;;7.70;1.60;;;6.60;53.60;;;;;;5115967;28;20958;-79
2021/03/14 14:59:09;;;;;;;3.23;1.80;;;6.50;53.10;;;;;;5104340;28;20465;-79
2021/03/14 15:01:35;;;;;;;3.17;1.60;;;6.50;52.90;;;;;;5106834;28;20448;-81
2021/03/14 15:04:02;;;;;;;3.30;2.00;;;6.50;53.00;;;;;;5109907;28;20455;-81
2021/03/14 15:06:28;;;;;;;2.27;2.00;;;6.70;53.40;;;;;;5108489;28;20489;-80
2021/03/14 15:08:55;;;;;;;2.70;1.77;;;6.70;53.20;;;;;;5103626;28;20456;-84
2021/03/14 15:11:21;;;;;;;2.80;2.10;;;6.90;53.50;;;;;;5110759;28;20439;-81
2021/03/14 15:13:48;;;;;;;2.27;1.40;;;7.00;52.90;;;;;;5115715;28;20480;-80
2021/03/14 15:16:15;;;;;;;3.30;1.97;;;7.10;52.70;;;;;;5122382;28;20455;-82
2021/03/14 15:18:42;;;;;;;3.50;1.80;;;7.20;53.00;;;;;;5111423;28;20453;-80
2021/03/14 15:21:09;;;;;;;3.23;1.83;;;7.20;52.80;;;;;;5107174;28;20445;-82
2021/03/14 15:23:35;;;;;;;2.10;1.67;;;7.30;53.00;;;;;;5114621;28;20470;-82
2021/03/14 15:26:02;;;;;;;4.43;1.70;;;7.30;52.70;;;;;;5111195;28;20453;-79
2021/03/14 15:28:28;;;;;;;2.97;1.87;;;7.20;52.50;;;;;;5118301;28;20457;-78
2021/03/14 15:30:55;;;;;;;3.97;1.70;;;7.10;52.50;;;;;;5115588;28;20470;-82
2021/03/14 15:33:22;;;;;;;4.73;1.87;;;7.00;52.70;;;;;;5111109;28;20446;-84
2021/03/14 15:35:49;;;;;;;3.40;2.23;;;6.90;52.80;;;;;;5117804;28;20455;-80
2021/03/14 15:38:17;;;;;;;3.70;2.37;;;6.80;53.20;;;;;;5111134;28;20478;-81
2021/03/14 15:40:43;;;;;;;4.27;1.80;;;6.90;53.40;;;;;;5109648;28;20462;-83
2021/03/14 15:43:10;;;;;;;4.10;1.67;;;6.90;53.60;;;;;;5115747;27;20449;-79
2021/03/14 15:45:37;;;;;;;5.33;2.17;;;6.70;53.60;;;;;;5106460;28;20484;-84
2021/03/14 15:48:06;;;;;;;3.43;1.90;;;6.60;53.20;;;;;;5104895;28;20445;-79
2021/03/14 15:50:34;;;;;;;3.00;1.50;;;6.50;53.40;;;;;;5108573;28;20464;-78
2021/03/14 15:53:00;;;;;;;8.43;2.17;;;6.50;53.70;;;;;;5108421;28;20792;-78
2021/03/14 15:55:26;;;;;;;5.43;1.93;;;6.50;53.80;;;;;;5110896;28;20459;-80
2021/03/14 15:57:53;;;;;;;5.77;2.27;;;6.60;54.00;;;;;;5108232;28;20531;-80
2021/03/14 16:00:20;;;;;;;3.00;2.10;;;6.60;54.00;;;;;;5109208;28;20470;-79
2021/03/14 16:02:46;;;;;;;1.70;1.60;;;6.60;54.10;;;;;;5110932;28;20965;-79